Time;durP1;ratioP1;P1;durP2;ratioP2;P2;SDS_P1;SDS_P2;PMS_P1;PMS_P2;Temp;Humidity;BMP_temperature;BMP_pressure;BME280_temperature;BME280_humidity;BME280_pressure;Samples;Min_cycle;Max_cycle;Signal;HPM_P1;HPM_P2
2021/05/20 00:00:11;;;;;;;1.50;1.10;;;6.80;1.40;;;7.40;100.00;95686.05;619713;222;32115;-70
2021/05/20 00:02:52;;;;;;;1.50;1.30;;;6.80;1.40;;;7.44;100.00;95685.84;646829;216;32183;-70
2021/05/20 00:05:34;;;;;;;1.87;1.50;;;6.90;1.40;;;7.53;100.00;95691.84;618453;222;32028;-70
2021/05/20 00:08:16;;;;;;;2.42;1.40;;;6.90;1.40;;;7.51;100.00;95692.81;618791;222;32168;-72
2021/05/20 00:10:58;;;;;;;1.48;1.10;;;6.90;1.40;;;7.60;100.00;95696.22;646945;216;31638;-72
2021/05/20 00:13:39;;;;;;;1.30;1.20;;;7.10;1.40;;;7.65;100.00;95693.35;644538;212;31671;-71
2021/05/20 00:16:21;;;;;;;2.58;1.40;;;7.10;1.40;;;7.67;100.00;95692.20;645445;216;31640;-72
2021/05/20 00:19:03;;;;;;;2.22;1.60;;;7.10;1.40;;;7.68;100.00;95697.59;647302;212;31655;-72
2021/05/20 00:21:45;;;;;;;2.00;1.48;;;7.10;1.40;;;7.70;100.00;95698.12;645830;216;32242;-72
2021/05/20 00:24:27;;;;;;;2.20;1.33;;;7.10;1.40;;;7.73;100.00;95697.72;645555;212;42445;-70
2021/05/20 00:27:08;;;;;;;2.20;1.50;;;7.10;1.40;;;7.76;100.00;95705.58;646344;216;32207;-72
2021/05/20 00:29:50;;;;;;;1.45;1.30;;;7.10;1.40;;;7.78;100.00;95705.89;646493;216;42220;-71
2021/05/20 00:32:32;;;;;;;2.75;1.73;;;7.10;1.40;;;7.72;100.00;95702.86;617261;226;31921;-71
2021/05/20 00:35:51;;;;;;;1.70;1.60;;;7.10;1.40;;;7.72;100.00;95700.91;645098;212;32155;-72
2021/05/20 00:38:32;;;;;;;1.83;1.50;;;7.10;1.40;;;7.75;100.00;95709.31;645974;212;32099;-71
2021/05/20 00:41:17;;;;;;;2.87;1.80;;;7.10;1.40;;;7.78;100.00;95708.38;646416;216;32142;-70
2021/05/20 00:43:59;;;;;;;3.10;1.60;;;7.20;1.40;;;7.79;100.00;95716.41;646211;216;31609;-71
2021/05/20 00:46:41;;;;;;;1.60;1.50;;;7.20;1.40;;;7.78;100.00;95714.26;646277;216;31661;-70
2021/05/20 00:49:22;;;;;;;1.98;1.50;;;7.20;1.40;;;7.79;100.00;95713.23;647559;212;32114;-72
2021/05/20 00:52:04;;;;;;;2.05;1.70;;;7.20;1.40;;;7.81;100.00;95715.42;645438;216;31681;-70
2021/05/20 00:54:49;;;;;;;1.70;1.60;;;7.20;1.40;;;7.81;100.00;95717.05;646305;212;31542;-72
2021/05/20 00:57:33;;;;;;;2.10;1.50;;;7.20;1.40;;;7.78;100.00;95715.45;646203;212;31544;-70
2021/05/20 01:00:18;;;;;;;2.00;1.60;;;7.20;1.40;;;7.81;100.00;95716.09;645658;216;31583;-72
2021/05/20 01:02:58;;;;;;;1.70;1.60;;;7.20;1.40;;;7.81;100.00;95711.63;645175;212;32628;-70
2021/05/20 01:05:40;;;;;;;1.83;1.40;;;7.20;1.40;;;7.78;100.00;95710.80;647070;213;31616;-70
2021/05/20 01:08:22;;;;;;;1.37;1.27;;;7.20;1.40;;;7.74;100.00;95710.02;618046;226;31926;-72
2021/05/20 01:11:04;;;;;;;2.15;1.30;;;7.10;1.40;;;7.74;100.00;95710.77;618750;222;31881;-70
2021/05/20 01:16:20;;;;;;;1.30;1.20;;;7.10;1.40;;;7.77;100.00;95716.27;630882;222;42661;-72
2021/05/20 01:19:01;;;;;;;1.40;1.10;;;7.10;1.40;;;7.76;100.00;95711.89;644922;216;31826;-70
2021/05/20 01:21:44;;;;;;;1.90;1.50;;;7.10;1.40;;;7.79;100.00;95721.48;646532;216;31635;-70
2021/05/20 01:24:25;;;;;;;1.70;1.10;;;7.10;1.40;;;7.81;100.00;95723.61;646152;216;32197;-69
2021/05/20 01:27:07;;;;;;;1.60;1.35;;;7.10;1.40;;;7.70;100.00;95717.12;647877;216;31542;-70
2021/05/20 01:29:49;;;;;;;1.50;1.40;;;7.00;1.40;;;7.73;100.00;95720.02;646446;212;31587;-70
2021/05/20 01:32:31;;;;;;;1.30;1.20;;;7.00;1.40;;;7.70;100.00;95719.81;646297;212;31450;-72
2021/05/20 01:35:51;;;;;;;1.65;1.20;;;7.00;1.40;;;7.67;100.00;95720.97;646731;212;31681;-72
2021/05/20 01:38:41;;;;;;;1.70;1.00;;;7.00;1.40;;;7.67;100.00;95715.84;646312;216;31649;-71
2021/05/20 01:41:22;;;;;;;1.40;1.17;;;7.00;1.40;;;7.70;100.00;95721.44;630887;222;31907;-72
2021/05/20 01:44:07;;;;;;;0.80;0.80;;;7.00;1.40;;;7.76;100.00;95718.59;646651;212;42161;-69
2021/05/20 01:46:49;;;;;;;1.80;0.90;;;7.00;1.40;;;7.71;100.00;95713.66;646095;216;31521;-70
2021/05/20 01:49:31;;;;;;;1.10;0.93;;;7.00;1.40;;;7.71;100.00;95719.59;619668;225;31845;-70
2021/05/20 01:52:12;;;;;;;1.60;0.90;;;6.90;1.40;;;7.66;100.00;95716.12;647022;212;31512;-69
2021/05/20 01:54:57;;;;;;;2.00;1.20;;;6.90;1.40;;;7.65;100.00;95718.55;645723;216;31572;-70
2021/05/20 01:57:39;;;;;;;1.55;0.90;;;6.80;1.40;;;7.51;100.00;95719.15;646769;212;31526;-69
2021/05/20 02:00:21;;;;;;;2.08;0.90;;;6.80;1.40;;;7.48;100.00;95718.52;647789;212;31568;-70
2021/05/20 02:03:02;;;;;;;2.37;1.20;;;6.80;1.40;;;7.43;100.00;95715.44;617310;225;31867;-70
2021/05/20 02:05:44;;;;;;;1.60;1.10;;;6.80;1.40;;;7.43;100.00;95714.36;646834;212;31756;-69
2021/05/20 02:08:26;;;;;;;1.70;0.85;;;6.90;1.40;;;7.46;100.00;95718.95;646993;216;31940;-70
2021/05/20 02:11:11;;;;;;;1.40;0.70;;;6.90;1.40;;;7.42;100.00;95718.52;646561;216;32147;-72
2021/05/20 02:13:52;;;;;;;1.77;1.00;;;6.80;1.40;;;7.40;100.00;95715.34;644913;212;32728;-71
2021/05/20 02:16:34;;;;;;;1.20;1.10;;;6.80;1.40;;;7.39;100.00;95716.21;647125;212;32393;-71
2021/05/20 02:19:16;;;;;;;1.48;1.00;;;6.70;1.40;;;7.40;100.00;95715.83;646774;212;32632;-70
2021/05/20 02:21:57;;;;;;;1.48;0.80;;;6.70;1.40;;;7.44;100.00;95716.44;646559;212;31659;-72
2021/05/20 02:24:39;;;;;;;1.10;0.85;;;6.70;1.40;;;7.40;100.00;95715.83;645435;216;42324;-70
2021/05/20 02:27:24;;;;;;;1.30;0.90;;;6.60;1.40;;;7.35;100.00;95715.80;645887;216;31578;-69
2021/05/20 02:30:07;;;;;;;1.50;0.98;;;6.50;1.40;;;7.39;100.00;95716.54;646061;216;31544;-72
2021/05/20 02:32:49;;;;;;;2.35;1.10;;;6.50;1.40;;;7.32;100.00;95718.84;647133;216;31572;-70
2021/05/20 02:35:51;;;;;;;2.10;0.90;;;6.50;1.40;;;7.22;100.00;95724.20;646457;212;32172;-72
2021/05/20 02:38:33;;;;;;;1.42;1.10;;;6.40;1.40;;;7.19;100.00;95722.11;646094;216;42593;-69
2021/05/20 02:41:15;;;;;;;1.40;0.90;;;6.40;1.40;;;7.13;100.00;95724.94;619692;225;35242;-72
2021/05/20 02:44:00;;;;;;;1.00;0.90;;;6.30;1.40;;;7.08;100.00;95725.44;645326;214;31603;-71
2021/05/20 02:46:41;;;;;;;1.00;0.90;;;6.30;1.40;;;7.06;100.00;95724.61;647622;216;31533;-71
2021/05/20 02:49:26;;;;;;;1.33;1.00;;;6.30;1.40;;;7.03;100.00;95724.57;630721;218;31945;-72
2021/05/20 02:52:08;;;;;;;0.80;0.80;;;6.30;1.40;;;7.09;100.00;95726.36;647504;212;31523;-69
2021/05/20 02:54:49;;;;;;;3.00;1.15;;;6.20;1.40;;;7.00;100.00;95724.73;646449;216;31588;-69
2021/05/20 02:57:32;;;;;;;2.30;1.00;;;6.20;1.40;;;6.95;100.00;95722.92;619284;222;31894;-72
2021/05/20 03:00:18;;;;;;;2.05;0.90;;;6.20;1.40;;;6.95;100.00;95720.82;647111;212;31539;-71
2021/05/20 03:02:57;;;;;;;3.15;0.98;;;6.30;1.40;;;7.02;100.00;95719.23;647436;212;32093;-71
2021/05/20 03:05:38;;;;;;;1.00;0.85;;;6.30;1.40;;;7.03;100.00;95722.95;646225;216;32095;-69
2021/05/20 03:08:20;;;;;;;1.10;0.80;;;6.40;1.40;;;7.10;100.00;95723.92;618549;222;32032;-69
2021/05/20 03:11:02;;;;;;;1.05;0.82;;;6.50;1.40;;;7.20;100.00;95729.66;646203;216;32073;-70
2021/05/20 03:13:44;;;;;;;1.80;0.80;;;6.60;1.40;;;7.16;100.00;95728.10;617220;223;32656;-74
2021/05/20 03:16:25;;;;;;;1.10;0.70;;;6.50;1.40;;;7.20;100.00;95726.09;645586;216;32171;-70
2021/05/20 03:19:07;;;;;;;1.40;1.00;;;6.60;1.40;;;7.25;100.00;95721.59;646353;213;32154;-71
2021/05/20 03:21:49;;;;;;;1.80;1.00;;;6.60;1.40;;;7.26;100.00;95720.97;645396;212;31509;-70
2021/05/20 03:24:30;;;;;;;1.62;0.70;;;6.60;1.40;;;7.26;100.00;95718.38;646746;216;32142;-71
2021/05/20 03:27:12;;;;;;;0.90;0.60;;;6.70;1.40;;;7.23;100.00;95727.27;645762;216;32280;-70
2021/05/20 03:29:54;;;;;;;1.20;0.88;;;6.70;1.40;;;7.25;100.00;95723.38;646974;216;31818;-71
2021/05/20 03:32:35;;;;;;;0.90;0.80;;;6.70;1.40;;;7.27;100.00;95720.32;620337;222;32069;-71
2021/05/20 03:35:51;;;;;;;1.12;0.90;;;6.70;1.40;;;7.24;100.00;95732.55;645638;216;31771;-71
2021/05/20 03:38:33;;;;;;;1.10;0.85;;;6.70;1.40;;;7.25;100.00;95725.02;620524;226;32238;-73
2021/05/20 03:41:15;;;;;;;1.70;1.00;;;6.70;1.40;;;7.25;100.00;95729.84;645443;216;31639;-70
2021/05/20 03:43:56;;;;;;;1.20;0.80;;;6.70;1.40;;;7.28;100.00;95731.75;646513;216;31671;-70
2021/05/20 03:46:38;;;;;;;1.62;0.90;;;6.70;1.40;;;7.23;100.00;95727.00;646856;212;31632;-72
2021/05/20 03:49:20;;;;;;;1.20;1.00;;;6.70;1.40;;;7.25;100.00;95723.88;647593;216;32296;-69
2021/05/20 03:52:02;;;;;;;2.10;0.80;;;6.70;1.40;;;7.22;100.00;95727.38;618457;226;32395;-70
2021/05/20 03:54:43;;;;;;;1.20;0.90;;;6.70;1.40;;;7.23;100.00;95730.13;646194;212;32160;-71
2021/05/20 03:57:25;;;;;;;1.20;1.10;;;6.70;1.40;;;7.22;100.00;95728.83;645984;215;31875;-71
2021/05/20 04:00:08;;;;;;;1.50;1.40;;;6.70;1.40;;;7.27;100.00;95733.31;644754;212;32150;-72
2021/05/20 04:02:50;;;;;;;2.12;1.45;;;6.80;1.40;;;7.25;100.00;95732.25;647868;212;31559;-72
2021/05/20 04:05:32;;;;;;;3.00;2.10;;;6.80;1.40;;;7.28;100.00;95731.96;618028;222;32258;-71
2021/05/20 04:10:57;;;;;;;1.40;1.30;;;6.80;1.40;;;7.36;100.00;95736.84;646910;216;31592;-70
2021/05/20 04:13:39;;;;;;;2.17;1.40;;;6.90;1.40;;;7.35;100.00;95739.80;645800;212;31529;-72
2021/05/20 04:16:23;;;;;;;1.60;1.30;;;6.80;1.40;;;7.36;100.00;95746.05;646289;212;31691;-70
2021/05/20 04:19:04;;;;;;;2.70;1.60;;;6.90;1.40;;;7.36;100.00;95748.65;647211;212;31972;-70
2021/05/20 04:21:44;;;;;;;1.70;1.60;;;6.90;1.40;;;7.37;100.00;95751.55;646338;216;31558;-71
2021/05/20 04:24:27;;;;;;;2.70;1.65;;;6.90;1.40;;;7.38;100.00;95755.70;645927;212;31567;-69
2021/05/20 04:27:08;;;;;;;1.50;1.40;;;6.90;1.40;;;7.39;100.00;95758.94;647215;212;31814;-71
2021/05/20 04:29:53;;;;;;;1.50;1.40;;;6.90;1.40;;;7.42;100.00;95761.13;617520;222;32309;-72
2021/05/20 04:32:34;;;;;;;2.70;1.50;;;6.90;1.40;;;7.40;100.00;95763.67;647519;216;31615;-70
2021/05/20 04:35:51;;;;;;;1.50;1.40;;;6.90;1.40;;;7.43;100.00;95764.91;619233;222;31931;-71
2021/05/20 04:38:33;;;;;;;2.60;1.60;;;6.90;1.40;;;7.49;100.00;95770.89;644982;216;31534;-71
2021/05/20 04:41:14;;;;;;;1.60;1.50;;;7.00;1.40;;;7.49;100.00;95768.73;646515;212;31585;-70
2021/05/20 04:46:30;;;;;;;1.50;1.40;;;7.00;1.40;;;7.60;100.00;95771.48;644867;212;31716;-70
2021/05/20 04:49:12;;;;;;;2.28;1.60;;;7.00;1.40;;;7.65;100.00;95773.86;646742;216;31672;-70
2021/05/20 04:51:54;;;;;;;2.70;1.87;;;7.00;1.40;;;7.59;100.00;95778.56;647533;212;31674;-72
2021/05/20 04:54:36;;;;;;;1.90;1.52;;;7.10;1.40;;;7.60;100.00;95779.80;647008;212;31685;-71
2021/05/20 04:57:17;;;;;;;1.85;1.60;;;7.10;1.40;;;7.63;100.00;95781.65;647969;216;42728;-70
2021/05/20 05:00:01;;;;;;;2.25;1.50;;;7.10;1.40;;;7.64;100.00;95784.61;645913;216;31586;-72
2021/05/20 05:02:43;;;;;;;2.03;1.83;;;7.10;1.40;;;7.70;100.00;95787.66;620735;222;31912;-71
2021/05/20 05:05:28;;;;;;;2.47;1.40;;;7.20;1.40;;;7.66;100.00;95790.38;619964;222;31989;-72
2021/05/20 05:08:10;;;;;;;1.80;1.60;;;7.20;1.40;;;7.75;100.00;95791.08;645464;216;31596;-72
2021/05/20 05:10:52;;;;;;;1.90;1.80;;;7.20;1.40;;;7.80;100.00;95792.89;647256;216;31565;-70
2021/05/20 05:13:39;;;;;;;2.50;1.70;;;7.30;1.40;;;7.88;100.00;95799.78;645822;216;31631;-71
2021/05/20 05:16:27;;;;;;;1.60;1.50;;;7.40;1.40;;;7.87;100.00;95799.03;646470;216;31587;-71
2021/05/20 05:19:15;;;;;;;1.70;1.60;;;7.30;1.40;;;7.74;100.00;95802.85;645139;216;31716;-71
2021/05/20 05:22:02;;;;;;;2.10;2.00;;;7.30;1.40;;;7.82;100.00;95803.77;646383;216;31631;-72
2021/05/20 05:24:41;;;;;;;2.55;1.98;;;7.40;1.40;;;7.94;100.00;95799.10;645329;212;31616;-72
2021/05/20 05:27:26;;;;;;;2.40;2.20;;;7.50;1.40;;;7.99;100.00;95805.98;646353;216;31818;-72
2021/05/20 05:30:08;;;;;;;2.37;1.90;;;7.50;1.40;;;7.89;100.00;95813.11;646434;216;42185;-71
2021/05/20 05:32:56;;;;;;;2.10;1.90;;;7.40;1.40;;;7.92;100.00;95814.45;646426;216;42177;-72
2021/05/20 05:35:51;;;;;;;1.95;1.85;;;7.40;1.40;;;7.97;100.00;95813.45;617293;226;31936;-72
2021/05/20 05:38:33;;;;;;;1.80;1.70;;;7.40;1.40;;;8.00;100.00;95817.56;646205;216;31642;-71
2021/05/20 05:41:14;;;;;;;2.53;1.92;;;7.50;1.40;;;8.20;100.00;95822.80;645031;212;31611;-70
2021/05/20 05:44:02;;;;;;;2.30;2.10;;;7.60;1.40;;;8.37;100.00;95821.99;646255;212;31555;-71
2021/05/20 05:46:50;;;;;;;1.87;1.77;;;7.90;1.40;;;8.53;100.00;95824.20;645444;216;31779;-71
2021/05/20 05:49:37;;;;;;;1.98;1.87;;;8.00;1.40;;;8.61;100.00;95826.11;619979;226;31905;-72
2021/05/20 05:52:18;;;;;;;2.00;1.80;;;8.10;1.40;;;8.75;100.00;95826.06;646923;216;42302;-72
2021/05/20 05:54:55;;;;;;;1.90;1.77;;;8.10;1.40;;;8.91;100.00;95831.98;618149;223;42929;-71
2021/05/20 05:57:38;;;;;;;1.95;1.70;;;8.30;1.40;;;8.93;100.00;95840.48;645614;213;31660;-69
2021/05/20 06:00:23;;;;;;;2.00;1.90;;;8.40;1.40;;;9.19;100.00;95844.05;647305;212;31670;-70
2021/05/20 06:03:07;;;;;;;2.53;1.67;;;8.60;1.40;;;9.43;100.00;95835.27;647058;212;42538;-71
2021/05/20 06:05:49;;;;;;;2.10;1.90;;;8.90;1.40;;;9.56;100.00;95843.53;645755;212;31581;-70
2021/05/20 06:08:40;;;;;;;2.30;2.10;;;9.00;1.40;;;9.78;100.00;95850.67;647343;212;31598;-71
2021/05/20 06:11:21;;;;;;;2.40;1.90;;;9.30;1.40;;;10.08;99.67;95847.86;645899;216;31594;-71
2021/05/20 06:14:10;;;;;;;1.70;1.60;;;9.30;1.40;;;10.09;98.69;95853.85;641751;216;32947;-71
2021/05/20 06:16:57;;;;;;;2.00;1.80;;;9.20;1.40;;;9.96;96.31;95848.79;646419;216;31810;-72
2021/05/20 06:19:44;;;;;;;1.93;1.60;;;9.00;1.40;;;9.76;98.18;95854.55;642446;216;32100;-71
2021/05/20 06:22:26;;;;;;;2.00;1.60;;;8.90;1.40;;;9.77;97.22;95857.08;646919;216;31597;-71
2021/05/20 06:25:08;;;;;;;2.47;1.77;;;8.90;1.40;;;9.73;97.97;95855.82;645734;216;31873;-70
2021/05/20 06:27:53;;;;;;;1.70;1.60;;;8.90;1.40;;;9.58;97.10;95857.38;645500;216;32139;-70
2021/05/20 06:30:41;;;;;;;2.23;1.60;;;8.90;1.40;;;9.62;97.67;95859.23;646982;212;31613;-72
2021/05/20 06:35:51;;;;;;;1.67;1.58;;;8.90;1.40;;;9.66;97.23;95866.17;647428;216;42846;-71
2021/05/20 06:38:35;;;;;;;2.23;1.73;;;9.00;1.40;;;9.77;97.00;95867.09;645932;212;31662;-72
2021/05/20 06:41:16;;;;;;;1.80;1.40;;;9.10;1.40;;;9.73;96.38;95872.56;647360;216;31591;-72
2021/05/20 06:43:58;;;;;;;1.70;1.60;;;9.00;1.40;;;9.59;95.36;95871.00;645587;216;31528;-71
2021/05/20 06:46:46;;;;;;;2.00;1.23;;;8.90;1.40;;;9.60;94.83;95873.81;641854;215;31564;-70
2021/05/20 06:49:33;;;;;;;1.70;1.60;;;8.80;1.40;;;9.60;93.88;95879.17;617980;226;31888;-71
2021/05/20 06:52:17;;;;;;;2.10;1.23;;;9.00;1.40;;;10.01;93.38;95875.48;646578;212;31555;-70
2021/05/20 06:55:01;;;;;;;1.33;1.20;;;9.40;1.40;;;10.21;93.12;95875.07;647108;216;31548;-71
2021/05/20 07:00:35;;;;;;;1.77;1.30;;;9.60;1.40;;;10.47;91.64;95879.64;644936;216;31562;-70
2021/05/20 07:03:17;;;;;;;1.40;1.30;;;9.80;1.40;;;10.56;89.18;95871.00;646302;216;31558;-71
2021/05/20 07:05:59;;;;;;;1.40;1.30;;;9.90;1.40;;;10.80;87.40;95876.48;645371;212;31608;-71
2021/05/20 07:08:40;;;;;;;1.80;1.30;;;10.10;1.40;;;11.08;88.41;95877.08;646163;216;31566;-72
2021/05/20 07:11:22;;;;;;;1.40;1.30;;;10.30;1.40;;;11.10;85.03;95876.95;641279;217;31496;-72
2021/05/20 07:14:06;;;;;;;1.10;0.97;;;10.40;1.40;;;11.18;84.25;95873.47;645368;212;31596;-71
2021/05/20 07:16:47;;;;;;;1.20;0.90;;;10.60;1.40;;;11.67;83.61;95871.33;646111;216;31545;-71
2021/05/20 07:19:29;;;;;;;1.53;0.90;;;11.00;1.40;;;11.56;82.69;95879.91;646516;212;31517;-71
2021/05/20 07:22:11;;;;;;;1.60;1.17;;;10.60;1.40;;;11.33;81.88;95883.15;618241;222;32053;-72
2021/05/20 07:24:53;;;;;;;1.20;0.90;;;10.60;1.40;;;11.84;82.80;95876.00;645825;216;31548;-71
2021/05/20 07:27:35;;;;;;;2.10;0.90;;;11.00;1.40;;;11.28;81.01;95881.92;646086;212;31533;-72
2021/05/20 07:30:23;;;;;;;1.07;0.70;;;10.40;1.40;;;11.03;80.87;95876.89;645587;216;31671;-70
2021/05/20 07:35:57;;;;;;;2.00;0.88;;;9.90;1.40;;;10.71;84.10;95886.20;645240;212;31677;-72
2021/05/20 07:38:39;;;;;;;1.50;0.90;;;9.90;1.40;;;10.76;84.12;95885.03;647291;212;31555;-70
2021/05/20 07:41:21;;;;;;;1.90;0.73;;;9.90;1.40;;;10.94;84.81;95887.66;647691;213;31587;-70
2021/05/20 07:44:11;;;;;;;1.30;0.70;;;10.00;1.40;;;11.07;85.17;95893.81;646393;216;33054;-71
2021/05/20 07:46:55;;;;;;;0.88;0.70;;;10.20;1.40;;;10.99;81.43;95880.77;646454;212;42705;-72
2021/05/20 07:49:41;;;;;;;1.00;0.80;;;10.10;1.40;;;11.26;80.23;95879.91;646604;213;31559;-71
2021/05/20 07:52:22;;;;;;;1.30;0.93;;;10.40;1.40;;;11.68;78.55;95879.47;646724;216;31532;-71
2021/05/20 07:55:14;;;;;;;0.90;0.70;;;10.90;1.40;;;11.72;79.57;95876.21;648480;216;31646;-70
2021/05/20 07:58:01;;;;;;;1.13;0.80;;;10.80;1.40;;;11.52;80.19;95877.02;645953;216;32066;-70
2021/05/20 08:00:49;;;;;;;1.50;0.88;;;10.60;1.40;;;11.24;82.87;95879.83;642086;215;31549;-71
2021/05/20 08:03:39;;;;;;;1.03;0.90;;;10.40;1.40;;;10.77;80.13;95887.30;620447;225;31929;-71
2021/05/20 08:06:22;;;;;;;1.30;1.00;;;10.00;1.40;;;10.69;83.97;95881.62;619347;226;31912;-72
2021/05/20 08:09:11;;;;;;;0.90;0.80;;;9.90;1.40;;;11.23;84.87;95878.44;646664;212;31500;-70
2021/05/20 08:11:41;;;;;;;0.90;0.90;;;10.90;1.40;;;11.81;80.60;95873.17;645884;216;31554;-71
2021/05/20 08:14:22;;;;;;;2.00;1.00;;;11.30;1.40;;;11.92;76.28;95871.64;642024;216;31687;-71
2021/05/20 08:17:07;;;;;;;1.00;0.90;;;11.30;1.40;;;11.61;78.46;95875.63;644001;212;31566;-72
2021/05/20 08:19:48;;;;;;;0.83;0.73;;;10.70;1.40;;;11.19;79.78;95882.02;647447;216;31547;-70
2021/05/20 08:22:30;;;;;;;1.10;1.00;;;10.30;1.40;;;11.40;80.89;95884.95;646357;212;31787;-70
2021/05/20 08:25:11;;;;;;;0.93;0.90;;;10.40;1.40;;;11.38;81.56;95884.83;620416;226;31889;-70
2021/05/20 08:27:53;;;;;;;0.70;0.70;;;10.40;1.40;;;11.42;80.09;95879.97;645854;216;33212;-70
2021/05/20 08:30:37;;;;;;;1.40;0.70;;;10.70;1.40;;;11.70;76.71;95881.42;647058;212;31603;-71
2021/05/20 08:35:57;;;;;;;1.33;0.70;;;11.70;1.40;;;12.97;71.53;95869.43;647208;212;31566;-71
2021/05/20 08:38:48;;;;;;;0.70;0.50;;;11.70;1.40;;;12.19;71.61;95869.84;646003;213;32675;-70
2021/05/20 08:41:30;;;;;;;2.10;0.60;;;11.00;1.40;;;10.58;76.72;95894.77;647632;212;31498;-71
2021/05/20 08:44:12;;;;;;;0.70;0.53;;;9.30;1.40;;;9.53;89.77;95898.80;645682;212;31622;-71
2021/05/20 08:46:57;;;;;;;1.65;0.80;;;8.60;1.40;;;9.20;95.93;95891.16;645407;216;31575;-71
2021/05/20 08:49:44;;;;;;;1.60;0.70;;;8.10;1.40;;;9.42;98.23;95879.13;645540;216;31512;-70
2021/05/20 08:52:21;;;;;;;0.90;0.70;;;8.10;1.40;;;9.12;100.00;95888.36;647740;212;31584;-71
2021/05/20 08:55:03;;;;;;;1.30;1.20;;;8.20;1.40;;;9.12;100.00;95885.13;647090;216;31952;-69
2021/05/20 08:57:45;;;;;;;1.20;1.00;;;8.40;1.40;;;9.35;100.00;95875.78;646717;212;31539;-70
2021/05/20 09:00:27;;;;;;;1.20;1.10;;;8.80;1.40;;;10.22;100.00;95880.31;646660;216;31530;-70
2021/05/20 09:03:09;;;;;;;1.10;1.00;;;10.00;1.40;;;11.14;100.00;95872.04;644998;212;31547;-69
2021/05/20 09:05:51;;;;;;;1.20;0.90;;;10.90;1.40;;;11.44;99.78;95867.66;646103;216;32201;-70
2021/05/20 09:08:33;;;;;;;1.50;0.70;;;11.30;1.40;;;11.66;94.54;95872.06;647113;212;32073;-70
2021/05/20 09:11:23;;;;;;;1.30;0.80;;;11.40;1.40;;;11.97;95.93;95870.81;619699;222;31955;-71
2021/05/20 09:14:10;;;;;;;0.60;0.50;;;11.90;1.40;;;11.81;95.08;95875.57;642432;216;31635;-69
2021/05/20 09:17:07;;;;;;;0.90;0.50;;;11.50;1.40;;;11.34;94.27;95879.78;645221;216;31779;-71
2021/05/20 09:19:53;;;;;;;0.83;0.60;;;11.80;1.40;;;12.84;88.35;95869.20;617101;226;31840;-71
2021/05/20 09:22:41;;;;;;;0.57;0.43;;;14.10;1.40;;;14.38;80.17;95860.66;646958;216;31501;-70
2021/05/20 09:25:24;;;;;;;0.88;0.60;;;15.40;1.40;;;15.00;74.04;95863.97;647179;216;31493;-71
2021/05/20 09:28:06;;;;;;;0.80;0.60;;;15.40;1.40;;;16.48;69.89;95854.78;647640;216;31574;-72
2021/05/20 09:30:48;;;;;;;0.90;0.43;;;16.10;1.40;;;15.70;66.93;95856.81;646653;216;31490;-71
2021/05/20 09:35:55;;;;;;;0.93;0.50;;;12.60;1.40;;;13.61;74.26;95851.42;645015;216;31934;-72
2021/05/20 09:38:38;;;;;;;1.30;0.75;;;12.00;1.40;;;12.18;75.79;95857.08;646319;216;42095;-71
2021/05/20 09:41:29;;;;;;;1.33;0.70;;;11.80;1.40;;;13.51;71.98;95853.90;647414;212;32489;-70
2021/05/20 09:47:01;;;;;;;1.10;0.50;;;12.20;1.40;;;13.33;72.12;95863.39;647827;216;31566;-71
2021/05/20 09:50:08;;;;;;;1.00;0.80;;;12.40;1.40;;;12.71;78.66;95873.88;644031;216;34479;-72
2021/05/20 09:53:01;;;;;;;2.47;0.70;;;11.30;1.40;;;10.80;83.51;95876.70;646315;216;31714;-70
2021/05/20 09:55:50;;;;;;;1.90;0.50;;;9.60;1.40;;;9.43;100.00;95885.12;644950;216;31626;-72
2021/05/20 09:58:31;;;;;;;0.70;0.50;;;8.30;1.40;;;9.10;100.00;95877.11;631541;221;31836;-72
2021/05/20 10:01:18;;;;;;;0.80;0.60;;;8.30;1.40;;;9.15;100.00;95869.36;645380;216;31621;-70
2021/05/20 10:03:59;;;;;;;0.70;0.50;;;8.40;1.40;;;9.27;100.00;95862.20;646856;212;31604;-69
2021/05/20 10:06:41;;;;;;;0.57;0.57;;;8.70;1.40;;;9.61;100.00;95874.50;646416;212;31603;-70
2021/05/20 10:09:23;;;;;;;0.57;0.40;;;9.70;1.40;;;10.81;100.00;95876.10;645864;212;31651;-72
2021/05/20 10:12:10;;;;;;;1.45;0.50;;;11.00;1.40;;;11.51;89.74;95879.64;646442;213;31894;-70
2021/05/20 10:14:54;;;;;;;0.70;0.30;;;11.80;1.40;;;12.41;84.97;95871.25;624107;221;32775;-68
2021/05/20 10:17:36;;;;;;;0.50;0.30;;;12.60;1.40;;;13.51;81.32;95873.14;646420;212;32018;-69
2021/05/20 10:20:18;;;;;;;1.10;0.32;;;13.70;1.40;;;15.01;73.58;95866.61;645578;216;32051;-71
2021/05/20 10:23:11;;;;;;;0.50;0.20;;;14.60;1.40;;;14.73;68.10;95867.59;646525;213;33000;-70
2021/05/20 10:25:53;;;;;;;0.73;0.30;;;13.60;1.40;;;14.08;66.94;95866.91;616131;224;32233;-70
2021/05/20 10:28:41;;;;;;;0.40;0.30;;;12.00;1.40;;;14.56;69.16;95868.30;646799;216;31510;-70
2021/05/20 10:31:28;;;;;;;0.45;0.30;;;13.20;1.40;;;15.89;63.99;95864.44;642304;219;31528;-70
2021/05/20 10:35:57;;;;;;;0.50;0.30;;;14.70;1.40;;;15.61;63.41;95860.30;646165;216;31508;-70
2021/05/20 10:38:39;;;;;;;0.40;0.30;;;14.10;1.40;;;16.53;56.63;95860.54;646494;212;31479;-71
2021/05/20 10:41:23;;;;;;;0.62;0.40;;;14.70;1.40;;;17.08;57.54;95854.94;646155;214;31482;-70
2021/05/20 10:44:11;;;;;;;0.50;0.28;;;14.40;1.40;;;15.89;59.49;95857.88;647767;212;31477;-71
2021/05/20 10:47:02;;;;;;;0.60;0.30;;;13.50;1.40;;;14.72;64.26;95863.65;645361;216;31461;-70
2021/05/20 10:50:02;;;;;;;1.00;0.40;;;12.30;1.40;;;12.50;77.68;95870.37;617984;226;31802;-70
2021/05/20 10:52:53;;;;;;;1.23;0.43;;;11.10;1.40;;;11.56;90.06;95868.11;645912;216;42108;-71
2021/05/20 10:55:34;;;;;;;0.70;0.30;;;10.90;1.40;;;11.03;87.90;95867.68;646691;212;31497;-71
2021/05/20 10:58:30;;;;;;;0.40;0.30;;;10.50;1.40;;;11.25;95.95;95856.48;647093;216;31478;-69
2021/05/20 11:01:38;;;;;;;0.40;0.30;;;11.20;1.40;;;13.50;88.19;95854.69;645843;216;31482;-71
2021/05/20 11:04:18;;;;;;;0.40;0.30;;;13.40;1.40;;;15.08;75.80;95849.16;647782;212;31521;-70
2021/05/20 11:06:59;;;;;;;0.60;0.50;;;14.90;1.40;;;14.84;72.76;95843.23;644656;216;36832;-71
2021/05/20 11:09:42;;;;;;;0.50;0.40;;;13.50;1.40;;;15.29;69.67;95843.02;646672;212;31543;-71
2021/05/20 11:12:25;;;;;;;0.70;0.35;;;13.50;1.40;;;16.13;66.08;95840.55;646288;212;31474;-71
2021/05/20 11:15:16;;;;;;;1.30;0.70;;;14.30;1.40;;;15.53;65.41;95844.67;637243;216;32030;-70
2021/05/20 11:20:41;;;;;;;0.50;0.30;;;12.80;1.40;;;13.53;70.65;95845.41;619402;222;32814;-71
2021/05/20 11:23:23;;;;;;;0.50;0.30;;;11.80;1.40;;;13.14;75.01;95848.61;647200;216;31513;-71
2021/05/20 11:26:06;;;;;;;0.50;0.30;;;11.50;1.40;;;12.75;79.17;95846.36;647129;216;42754;-72
2021/05/20 11:28:55;;;;;;;0.50;0.30;;;11.40;1.40;;;12.44;78.83;95844.70;645368;212;33381;-71
2021/05/20 11:31:36;;;;;;;0.68;0.30;;;11.20;1.40;;;12.40;77.08;95847.51;618744;222;31808;-71
2021/05/20 11:36:08;;;;;;;1.10;0.40;;;11.00;1.40;;;12.14;76.08;95842.99;647252;213;42217;-70
2021/05/20 11:38:35;;;;;;;0.40;0.20;;;11.00;1.40;;;11.95;78.33;95844.84;645569;212;31480;-71
2021/05/20 11:41:23;;;;;;;0.40;0.20;;;10.90;1.40;;;11.68;77.24;95847.34;645639;215;31496;-71
2021/05/20 11:44:11;;;;;;;1.20;0.30;;;10.80;1.40;;;11.91;78.79;95841.38;646609;216;42272;-72
2021/05/20 11:47:02;;;;;;;0.40;0.30;;;11.10;1.40;;;12.84;76.61;95838.88;646687;212;42657;-71
2021/05/20 11:49:43;;;;;;;0.50;0.30;;;12.60;1.40;;;15.34;68.16;95837.95;646183;216;31510;-70
2021/05/20 11:52:25;;;;;;;0.60;0.30;;;13.90;1.40;;;17.36;59.02;95827.10;646898;216;31486;-70
2021/05/20 11:55:10;;;;;;;0.43;0.30;;;15.70;1.40;;;15.58;65.06;95846.48;645332;216;42330;-70
2021/05/20 11:58:01;;;;;;;0.60;0.50;;;13.10;1.40;;;13.13;68.36;95845.47;646052;212;36458;-70
2021/05/20 12:00:48;;;;;;;0.50;0.40;;;11.70;1.40;;;12.16;73.93;95838.00;646354;216;42119;-70
2021/05/20 12:03:30;;;;;;;0.90;0.30;;;11.10;1.40;;;12.21;75.79;95835.02;647529;216;31473;-70
2021/05/20 12:06:12;;;;;;;0.47;0.30;;;11.30;1.40;;;12.23;75.56;95828.23;647802;216;31500;-70
2021/05/20 12:09:14;;;;;;;0.60;0.40;;;11.60;1.40;;;13.41;69.73;95819.73;645661;212;32064;-70
2021/05/20 12:11:56;;;;;;;0.80;0.30;;;12.20;1.40;;;14.66;62.95;95815.50;646949;212;31517;-71